Terminal Aerodrome Forecast
Issued by NWS

Home | Current Version | Previous Version | Text Only | Print | Product List | Glossary On
Versions: 1 2 3 4 5 6 7 8 9 10 11 12
305
FTUS43 KICT 102352 RRA
TAFCNU
TAF
KCNU 102352Z 1100/1124 16009KT P6SM OVC035
     FM110700 18012KT P6SM OVC025
     FM111100 19013G21KT P6SM OVC015
     FM111400 19011KT 2SM -DZ BR OVC008
     FM111700 22009KT 5SM -DZ BR OVC012
     FM111900 23009KT 6SM BR OVC015
     FM112000 30009KT P6SM OVC020=

USA.gov is the U.S. government's official web portal to all federal, state and local government web resources and services.